sensor_id;sensor_type;location;lat;lon;timestamp;pressure;altitude;pressure_sealevel;temperature;humidity
51452;BME280;37521;52.020;-1.740;2022-10-26T00:01:06;98818.81;;;11.50;100.00
51452;BME280;37521;52.020;-1.740;2022-10-26T00:03:35;98809.09;;;11.50;100.00
51452;BME280;37521;52.020;-1.740;2022-10-26T00:06:05;98809.97;;;11.51;100.00
51452;BME280;37521;52.020;-1.740;2022-10-26T00:08:34;98805.53;;;11.51;100.00
51452;BME280;37521;52.020;-1.740;2022-10-26T00:11:03;98799.16;;;11.54;100.00
51452;BME280;37521;52.020;-1.740;2022-10-26T00:13:33;98801.06;;;11.52;100.00
51452;BME280;37521;52.020;-1.740;2022-10-26T00:16:07;98787.31;;;11.46;100.00
51452;BME280;37521;52.020;-1.740;2022-10-26T00:18:35;98792.63;;;11.46;100.00
51452;BME280;37521;52.020;-1.740;2022-10-26T00:21:04;98781.81;;;11.50;100.00
51452;BME280;37521;52.020;-1.740;2022-10-26T00:23:32;98786.91;;;11.53;100.00
51452;BME280;37521;52.020;-1.740;2022-10-26T00:26:01;98783.53;;;11.51;100.00
51452;BME280;37521;52.020;-1.740;2022-10-26T00:28:29;98783.72;;;11.48;100.00
51452;BME280;37521;52.020;-1.740;2022-10-26T00:31:00;98776.75;;;11.46;100.00
51452;BME280;37521;52.020;-1.740;2022-10-26T00:33:29;98782.03;;;11.46;100.00
51452;BME280;37521;52.020;-1.740;2022-10-26T00:35:58;98781.81;;;11.50;100.00
51452;BME280;37521;52.020;-1.740;2022-10-26T00:38:26;98780.78;;;11.52;100.00
51452;BME280;37521;52.020;-1.740;2022-10-26T00:40:54;98780.66;;;11.54;100.00
51452;BME280;37521;52.020;-1.740;2022-10-26T00:43:41;98776.34;;;11.53;100.00
51452;BME280;37521;52.020;-1.740;2022-10-26T00:46:15;98777.19;;;11.53;100.00
51452;BME280;37521;52.020;-1.740;2022-10-26T00:48:49;98769.13;;;11.55;100.00
51452;BME280;37521;52.020;-1.740;2022-10-26T00:51:23;98761.09;;;11.56;100.00
51452;BME280;37521;52.020;-1.740;2022-10-26T00:53:53;98772.06;;;11.63;100.00
51452;BME280;37521;52.020;-1.740;2022-10-26T00:56:22;98766.59;;;11.66;100.00
51452;BME280;37521;52.020;-1.740;2022-10-26T00:58:51;98762.97;;;11.67;100.00
51452;BME280;37521;52.020;-1.740;2022-10-26T01:01:20;98758.44;;;11.69;100.00
51452;BME280;37521;52.020;-1.740;2022-10-26T01:03:48;98759.38;;;11.68;100.00
51452;BME280;37521;52.020;-1.740;2022-10-26T01:06:17;98752.28;;;11.68;100.00
51452;BME280;37521;52.020;-1.740;2022-10-26T01:08:46;98756.00;;;11.66;100.00
51452;BME280;37521;52.020;-1.740;2022-10-26T01:11:15;98750.19;;;11.61;100.00
51452;BME280;37521;52.020;-1.740;2022-10-26T01:13:44;98753.91;;;11.58;100.00
51452;BME280;37521;52.020;-1.740;2022-10-26T01:16:28;98749.66;;;11.56;100.00
51452;BME280;37521;52.020;-1.740;2022-10-26T01:19:24;98752.53;;;11.53;100.00
51452;BME280;37521;52.020;-1.740;2022-10-26T01:21:57;98750.75;;;11.53;100.00
51452;BME280;37521;52.020;-1.740;2022-10-26T01:27:26;98730.66;;;11.51;100.00
51452;BME280;37521;52.020;-1.740;2022-10-26T01:30:17;98726.31;;;11.50;100.00
51452;BME280;37521;52.020;-1.740;2022-10-26T01:32:50;98733.38;;;11.49;100.00
51452;BME280;37521;52.020;-1.740;2022-10-26T01:35:25;98734.47;;;11.46;100.00
51452;BME280;37521;52.020;-1.740;2022-10-26T01:37:55;98743.34;;;11.45;100.00
51452;BME280;37521;52.020;-1.740;2022-10-26T01:40:28;98744.19;;;11.46;100.00
51452;BME280;37521;52.020;-1.740;2022-10-26T01:43:03;98744.81;;;11.50;100.00
51452;BME280;37521;52.020;-1.740;2022-10-26T01:45:36;98751.81;;;11.51;100.00
51452;BME280;37521;52.020;-1.740;2022-10-26T01:48:08;98743.00;;;11.50;100.00
51452;BME280;37521;52.020;-1.740;2022-10-26T01:50:40;98748.22;;;11.52;100.00
51452;BME280;37521;52.020;-1.740;2022-10-26T01:53:11;98745.44;;;11.53;100.00
51452;BME280;37521;52.020;-1.740;2022-10-26T01:55:44;98741.97;;;11.53;100.00
51452;BME280;37521;52.020;-1.740;2022-10-26T02:01:23;98731.59;;;11.50;100.00
51452;BME280;37521;52.020;-1.740;2022-10-26T02:04:00;98741.25;;;11.51;100.00
51452;BME280;37521;52.020;-1.740;2022-10-26T02:06:40;98742.09;;;11.51;100.00
51452;BME280;37521;52.020;-1.740;2022-10-26T02:09:19;98732.13;;;11.55;100.00
51452;BME280;37521;52.020;-1.740;2022-10-26T02:11:52;98742.50;;;11.58;100.00
51452;BME280;37521;52.020;-1.740;2022-10-26T02:14:27;98740.59;;;11.60;100.00
51452;BME280;37521;52.020;-1.740;2022-10-26T02:17:05;98731.69;;;11.61;100.00
51452;BME280;37521;52.020;-1.740;2022-10-26T02:19:39;98735.28;;;11.60;100.00
51452;BME280;37521;52.020;-1.740;2022-10-26T02:22:14;98733.38;;;11.62;100.00
51452;BME280;37521;52.020;-1.740;2022-10-26T02:24:46;98731.38;;;11.65;100.00
51452;BME280;37521;52.020;-1.740;2022-10-26T02:27:17;98740.88;;;11.68;100.00
51452;BME280;37521;52.020;-1.740;2022-10-26T02:29:47;98736.53;;;11.67;100.00
51452;BME280;37521;52.020;-1.740;2022-10-26T02:32:21;98744.25;;;11.70;100.00
51452;BME280;37521;52.020;-1.740;2022-10-26T02:34:51;98734.44;;;11.72;100.00
51452;BME280;37521;52.020;-1.740;2022-10-26T02:37:21;98735.16;;;11.74;100.00
51452;BME280;37521;52.020;-1.740;2022-10-26T02:39:51;98732.75;;;11.71;100.00
51452;BME280;37521;52.020;-1.740;2022-10-26T02:42:23;98731.03;;;11.70;100.00
51452;BME280;37521;52.020;-1.740;2022-10-26T02:44:53;98723.22;;;11.68;100.00
51452;BME280;37521;52.020;-1.740;2022-10-26T02:47:25;98718.75;;;11.69;100.00
51452;BME280;37521;52.020;-1.740;2022-10-26T02:49:54;98725.00;;;11.68;100.00
51452;BME280;37521;52.020;-1.740;2022-10-26T02:52:28;98716.22;;;11.67;100.00
51452;BME280;37521;52.020;-1.740;2022-10-26T02:55:03;98709.25;;;11.66;100.00
51452;BME280;37521;52.020;-1.740;2022-10-26T02:57:36;98713.72;;;11.66;100.00
51452;BME280;37521;52.020;-1.740;2022-10-26T03:00:07;98710.34;;;11.64;100.00
51452;BME280;37521;52.020;-1.740;2022-10-26T03:02:37;98714.88;;;11.62;100.00
51452;BME280;37521;52.020;-1.740;2022-10-26T03:05:11;98714.88;;;11.62;100.00
51452;BME280;37521;52.020;-1.740;2022-10-26T03:07:40;98711.38;;;11.61;100.00
51452;BME280;37521;52.020;-1.740;2022-10-26T03:10:09;98713.06;;;11.62;100.00
51452;BME280;37521;52.020;-1.740;2022-10-26T03:12:37;98707.78;;;11.62;100.00
51452;BME280;37521;52.020;-1.740;2022-10-26T03:15:06;98719.94;;;11.65;100.00
51452;BME280;37521;52.020;-1.740;2022-10-26T03:17:34;98724.41;;;11.64;100.00
51452;BME280;37521;52.020;-1.740;2022-10-26T03:20:05;98721.13;;;11.61;100.00
51452;BME280;37521;52.020;-1.740;2022-10-26T03:22:33;98728.94;;;11.62;100.00
51452;BME280;37521;52.020;-1.740;2022-10-26T03:25:01;98734.13;;;11.64;100.00
51452;BME280;37521;52.020;-1.740;2022-10-26T03:27:30;98731.97;;;11.69;100.00
51452;BME280;37521;52.020;-1.740;2022-10-26T03:29:58;98739.59;;;11.73;100.00
51452;BME280;37521;52.020;-1.740;2022-10-26T03:32:26;98741.91;;;11.78;100.00
51452;BME280;37521;52.020;-1.740;2022-10-26T03:34:54;98738.31;;;11.79;100.00
51452;BME280;37521;52.020;-1.740;2022-10-26T03:37:24;98747.09;;;11.80;100.00
51452;BME280;37521;52.020;-1.740;2022-10-26T03:39:52;98749.84;;;11.78;100.00
51452;BME280;37521;52.020;-1.740;2022-10-26T03:42:20;98747.22;;;11.78;100.00
51452;BME280;37521;52.020;-1.740;2022-10-26T03:44:48;98744.56;;;11.78;100.00
51452;BME280;37521;52.020;-1.740;2022-10-26T03:47:17;98738.44;;;11.78;100.00
51452;BME280;37521;52.020;-1.740;2022-10-26T03:49:45;98744.78;;;11.75;100.00
51452;BME280;37521;52.020;-1.740;2022-10-26T03:52:13;98749.22;;;11.74;100.00
51452;BME280;37521;52.020;-1.740;2022-10-26T03:54:43;98739.72;;;11.72;100.00
51452;BME280;37521;52.020;-1.740;2022-10-26T03:57:11;98730.94;;;11.71;100.00
51452;BME280;37521;52.020;-1.740;2022-10-26T03:59:39;98736.31;;;11.70;100.00
51452;BME280;37521;52.020;-1.740;2022-10-26T04:02:08;98731.25;;;11.67;100.00
51452;BME280;37521;52.020;-1.740;2022-10-26T04:04:37;98733.59;;;11.59;100.00
51452;BME280;37521;52.020;-1.740;2022-10-26T04:07:05;98733.81;;;11.56;100.00
51452;BME280;37521;52.020;-1.740;2022-10-26T04:09:33;98730.44;;;11.54;100.00
51452;BME280;37521;52.020;-1.740;2022-10-26T04:12:03;98724.50;;;11.50;100.00
51452;BME280;37521;52.020;-1.740;2022-10-26T04:14:31;98727.50;;;11.45;100.00
51452;BME280;37521;52.020;-1.740;2022-10-26T04:17:00;98729.50;;;11.42;100.00
51452;BME280;37521;52.020;-1.740;2022-10-26T04:19:28;98729.59;;;11.40;100.00
51452;BME280;37521;52.020;-1.740;2022-10-26T04:21:56;98732.97;;;11.42;100.00
51452;BME280;37521;52.020;-1.740;2022-10-26T04:24:24;98728.53;;;11.43;100.00
51452;BME280;37521;52.020;-1.740;2022-10-26T04:26:52;98737.84;;;11.49;100.00
51452;BME280;37521;52.020;-1.740;2022-10-26T04:29:21;98742.94;;;11.52;100.00
51452;BME280;37521;52.020;-1.740;2022-10-26T04:31:49;98722.09;;;11.47;100.00
51452;BME280;37521;52.020;-1.740;2022-10-26T04:34:17;98735.13;;;11.37;100.00
51452;BME280;37521;52.020;-1.740;2022-10-26T04:36:45;98741.03;;;11.28;100.00
51452;BME280;37521;52.020;-1.740;2022-10-26T04:39:13;98734.47;;;11.21;100.00
51452;BME280;37521;52.020;-1.740;2022-10-26T04:41:42;98746.41;;;11.14;100.00
51452;BME280;37521;52.020;-1.740;2022-10-26T04:44:10;98748.75;;;11.06;100.00
51452;BME280;37521;52.020;-1.740;2022-10-26T04:46:39;98755.94;;;11.04;100.00
51452;BME280;37521;52.020;-1.740;2022-10-26T04:49:07;98759.31;;;11.06;100.00
51452;BME280;37521;52.020;-1.740;2022-10-26T04:51:35;98757.28;;;11.09;100.00
51452;BME280;37521;52.020;-1.740;2022-10-26T04:54:04;98770.41;;;11.11;100.00
51452;BME280;37521;52.020;-1.740;2022-10-26T04:56:32;98761.97;;;11.18;100.00
51452;BME280;37521;52.020;-1.740;2022-10-26T04:59:00;98773.91;;;11.24;100.00
51452;BME280;37521;52.020;-1.740;2022-10-26T05:01:29;98768.41;;;11.27;100.00
51452;BME280;37521;52.020;-1.740;2022-10-26T05:03:59;98762.38;;;11.25;100.00
51452;BME280;37521;52.020;-1.740;2022-10-26T05:06:27;98767.38;;;11.17;100.00
51452;BME280;37521;52.020;-1.740;2022-10-26T05:08:55;98768.28;;;11.16;100.00
51452;BME280;37521;52.020;-1.740;2022-10-26T05:11:24;98768.09;;;11.06;100.00
51452;BME280;37521;52.020;-1.740;2022-10-26T05:13:52;98768.50;;;11.13;100.00
51452;BME280;37521;52.020;-1.740;2022-10-26T05:16:20;98781.72;;;11.13;100.00
51452;BME280;37521;52.020;-1.740;2022-10-26T05:18:48;98773.97;;;11.10;100.00
51452;BME280;37521;52.020;-1.740;2022-10-26T05:21:17;98782.88;;;11.09;100.00
51452;BME280;37521;52.020;-1.740;2022-10-26T05:23:49;98776.00;;;11.06;100.00
51452;BME280;37521;52.020;-1.740;2022-10-26T05:26:18;98780.56;;;11.04;100.00
51452;BME280;37521;52.020;-1.740;2022-10-26T05:28:46;98781.00;;;11.11;100.00
51452;BME280;37521;52.020;-1.740;2022-10-26T05:31:15;98789.41;;;11.16;100.00
51452;BME280;37521;52.020;-1.740;2022-10-26T05:33:43;98797.34;;;11.16;100.00
51452;BME280;37521;52.020;-1.740;2022-10-26T05:36:11;98794.28;;;11.22;100.00
51452;BME280;37521;52.020;-1.740;2022-10-26T05:38:40;98799.28;;;11.27;100.00
51452;BME280;37521;52.020;-1.740;2022-10-26T05:41:08;98793.44;;;11.34;100.00
51452;BME280;37521;52.020;-1.740;2022-10-26T05:43:36;98795.16;;;11.35;100.00
51452;BME280;37521;52.020;-1.740;2022-10-26T05:46:05;98803.59;;;11.40;100.00
51452;BME280;37521;52.020;-1.740;2022-10-26T05:48:33;98799.16;;;11.41;100.00
51452;BME280;37521;52.020;-1.740;2022-10-26T05:51:01;98784.38;;;11.38;100.00
51452;BME280;37521;52.020;-1.740;2022-10-26T05:53:29;98791.78;;;11.33;100.00
51452;BME280;37521;52.020;-1.740;2022-10-26T05:55:59;98789.13;;;11.33;100.00
51452;BME280;37521;52.020;-1.740;2022-10-26T05:58:32;98774.00;;;11.35;100.00
51452;BME280;37521;52.020;-1.740;2022-10-26T06:01:09;98791.53;;;11.36;100.00
51452;BME280;37521;52.020;-1.740;2022-10-26T06:03:51;98784.50;;;11.37;100.00
51452;BME280;37521;52.020;-1.740;2022-10-26T06:06:23;98784.50;;;11.37;100.00
51452;BME280;37521;52.020;-1.740;2022-10-26T06:08:54;98789.66;;;11.38;100.00
51452;BME280;37521;52.020;-1.740;2022-10-26T06:11:23;98778.88;;;11.41;100.00
51452;BME280;37521;52.020;-1.740;2022-10-26T06:13:52;98776.66;;;11.48;100.00
51452;BME280;37521;52.020;-1.740;2022-10-26T06:16:32;98781.63;;;11.53;100.00
51452;BME280;37521;52.020;-1.740;2022-10-26T06:19:12;98787.44;;;11.58;100.00
51452;BME280;37521;52.020;-1.740;2022-10-26T06:21:54;98785.53;;;11.60;100.00
51452;BME280;37521;52.020;-1.740;2022-10-26T06:24:30;98785.72;;;11.57;100.00
51452;BME280;37521;52.020;-1.740;2022-10-26T06:27:14;98801.59;;;11.57;100.00
51452;BME280;37521;52.020;-1.740;2022-10-26T06:29:49;98796.41;;;11.55;100.00
51452;BME280;37521;52.020;-1.740;2022-10-26T06:32:23;98801.91;;;11.52;100.00
51452;BME280;37521;52.020;-1.740;2022-10-26T06:34:53;98802.53;;;11.56;100.00
51452;BME280;37521;52.020;-1.740;2022-10-26T06:37:29;98808.47;;;11.59;100.00
51452;BME280;37521;52.020;-1.740;2022-10-26T06:39:59;98813.75;;;11.59;100.00
51452;BME280;37521;52.020;-1.740;2022-10-26T06:42:30;98804.22;;;11.57;100.00
51452;BME280;37521;52.020;-1.740;2022-10-26T06:44:59;98806.97;;;11.55;100.00
51452;BME280;37521;52.020;-1.740;2022-10-26T06:47:31;98816.53;;;11.58;100.00
51452;BME280;37521;52.020;-1.740;2022-10-26T06:50:11;98818.19;;;11.59;100.00
51452;BME280;37521;52.020;-1.740;2022-10-26T06:52:47;98819.03;;;11.59;100.00
51452;BME280;37521;52.020;-1.740;2022-10-26T06:55:16;98819.47;;;11.66;100.00
51452;BME280;37521;52.020;-1.740;2022-10-26T06:57:46;98822.41;;;11.74;100.00
51452;BME280;37521;52.020;-1.740;2022-10-26T07:00:18;98817.97;;;11.74;100.00
51452;BME280;37521;52.020;-1.740;2022-10-26T07:02:48;98818.63;;;11.78;100.00
51452;BME280;37521;52.020;-1.740;2022-10-26T07:05:16;98822.88;;;11.81;100.00
51452;BME280;37521;52.020;-1.740;2022-10-26T07:07:46;98820.09;;;11.82;100.00
51452;BME280;37521;52.020;-1.740;2022-10-26T07:10:15;98814.63;;;11.85;100.00
51452;BME280;37521;52.020;-1.740;2022-10-26T07:12:43;98805.06;;;11.83;100.00
51452;BME280;37521;52.020;-1.740;2022-10-26T07:15:13;98814.81;;;11.82;100.00
51452;BME280;37521;52.020;-1.740;2022-10-26T07:17:43;98822.94;;;11.79;100.00
51452;BME280;37521;52.020;-1.740;2022-10-26T07:20:12;98817.66;;;11.79;100.00
51452;BME280;37521;52.020;-1.740;2022-10-26T07:22:41;98815.97;;;11.78;100.00
51452;BME280;37521;52.020;-1.740;2022-10-26T07:25:14;98826.75;;;11.75;100.00
51452;BME280;37521;52.020;-1.740;2022-10-26T07:27:44;98824.09;;;11.75;100.00
51452;BME280;37521;52.020;-1.740;2022-10-26T07:30:14;98831.06;;;11.76;100.00
51452;BME280;37521;52.020;-1.740;2022-10-26T07:32:43;98825.78;;;11.76;100.00
51452;BME280;37521;52.020;-1.740;2022-10-26T07:35:11;98836.59;;;11.73;100.00
51452;BME280;37521;52.020;-1.740;2022-10-26T07:37:39;98844.53;;;11.73;100.00
51452;BME280;37521;52.020;-1.740;2022-10-26T07:40:07;98853.41;;;11.72;100.00
51452;BME280;37521;52.020;-1.740;2022-10-26T07:42:38;98856.06;;;11.72;100.00
51452;BME280;37521;52.020;-1.740;2022-10-26T07:45:15;98858.72;;;11.72;100.00
51452;BME280;37521;52.020;-1.740;2022-10-26T07:47:43;98860.41;;;11.73;100.00
51452;BME280;37521;52.020;-1.740;2022-10-26T07:50:12;98864.53;;;11.77;100.00
51452;BME280;37521;52.020;-1.740;2022-10-26T07:52:40;98866.03;;;11.81;100.00
51452;BME280;37521;52.020;-1.740;2022-10-26T07:55:09;98858.81;;;11.83;100.00
51452;BME280;37521;52.020;-1.740;2022-10-26T07:57:38;98871.84;;;11.86;100.00
51452;BME280;37521;52.020;-1.740;2022-10-26T08:00:26;98877.66;;;11.91;100.00
51452;BME280;37521;52.020;-1.740;2022-10-26T08:02:55;98881.03;;;11.93;100.00
51452;BME280;37521;52.020;-1.740;2022-10-26T08:05:23;98891.41;;;11.96;100.00
51452;BME280;37521;52.020;-1.740;2022-10-26T08:07:52;98886.09;;;11.96;100.00
51452;BME280;37521;52.020;-1.740;2022-10-26T08:10:20;98900.09;;;11.98;100.00
51452;BME280;37521;52.020;-1.740;2022-10-26T08:12:48;98899.88;;;12.02;100.00
51452;BME280;37521;52.020;-1.740;2022-10-26T08:15:19;98889.94;;;12.05;100.00
51452;BME280;37521;52.020;-1.740;2022-10-26T08:17:48;98894.03;;;12.09;100.00
51452;BME280;37521;52.020;-1.740;2022-10-26T08:20:17;98904.53;;;12.11;100.00
51452;BME280;37521;52.020;-1.740;2022-10-26T08:22:45;98901.88;;;12.11;100.00
51452;BME280;37521;52.020;-1.740;2022-10-26T08:25:14;98902.63;;;12.13;100.00
51452;BME280;37521;52.020;-1.740;2022-10-26T08:27:47;98907.91;;;12.13;100.00
51452;BME280;37521;52.020;-1.740;2022-10-26T08:30:15;98919.22;;;12.15;100.00
51452;BME280;37521;52.020;-1.740;2022-10-26T08:32:43;98918.06;;;12.19;100.00
51452;BME280;37521;52.020;-1.740;2022-10-26T08:35:13;98912.34;;;12.25;100.00
51452;BME280;37521;52.020;-1.740;2022-10-26T08:37:41;98915.72;;;12.27;100.00
51452;BME280;37521;52.020;-1.740;2022-10-26T08:40:14;98928.94;;;12.27;100.00
51452;BME280;37521;52.020;-1.740;2022-10-26T08:42:46;98939.31;;;12.30;100.00
51452;BME280;37521;52.020;-1.740;2022-10-26T08:45:23;98928.81;;;12.41;100.00
51452;BME280;37521;52.020;-1.740;2022-10-26T08:48:02;98944.28;;;12.47;100.00
51452;BME280;37521;52.020;-1.740;2022-10-26T08:50:35;98956.13;;;12.54;100.00
51452;BME280;37521;52.020;-1.740;2022-10-26T08:53:13;98957.38;;;12.62;100.00
51452;BME280;37521;52.020;-1.740;2022-10-26T08:55:48;98967.53;;;12.68;100.00
51452;BME280;37521;52.020;-1.740;2022-10-26T08:58:20;98958.63;;;12.69;100.00
51452;BME280;37521;52.020;-1.740;2022-10-26T09:00:50;98970.16;;;12.68;100.00
51452;BME280;37521;52.020;-1.740;2022-10-26T09:03:18;98973.78;;;12.67;100.00
51452;BME280;37521;52.020;-1.740;2022-10-26T09:06:00;98974.75;;;12.66;100.00
51452;BME280;37521;52.020;-1.740;2022-10-26T09:08:35;98980.88;;;12.66;100.00
51452;BME280;37521;52.020;-1.740;2022-10-26T09:11:16;98984.91;;;12.72;100.00
51452;BME280;37521;52.020;-1.740;2022-10-26T09:13:56;98988.03;;;12.77;100.00
51452;BME280;37521;52.020;-1.740;2022-10-26T09:16:29;98990.81;;;12.75;100.00
51452;BME280;37521;52.020;-1.740;2022-10-26T09:19:24;98987.63;;;12.70;100.00
51452;BME280;37521;52.020;-1.740;2022-10-26T09:22:02;98994.00;;;12.68;100.00
51452;BME280;37521;52.020;-1.740;2022-10-26T09:24:37;98991.16;;;12.71;100.00
51452;BME280;37521;52.020;-1.740;2022-10-26T09:27:11;99011.78;;;12.91;100.00
51452;BME280;37521;52.020;-1.740;2022-10-26T09:29:43;99005.47;;;13.05;100.00
51452;BME280;37521;52.020;-1.740;2022-10-26T09:32:16;99001.19;;;13.15;100.00
51452;BME280;37521;52.020;-1.740;2022-10-26T09:34:48;99009.56;;;13.22;100.00
51452;BME280;37521;52.020;-1.740;2022-10-26T09:37:21;99018.78;;;13.16;100.00
51452;BME280;37521;52.020;-1.740;2022-10-26T09:39:53;99016.56;;;13.10;100.00
51452;BME280;37521;52.020;-1.740;2022-10-26T09:42:27;99029.66;;;13.00;100.00
51452;BME280;37521;52.020;-1.740;2022-10-26T09:45:02;99032.06;;;13.03;100.00
51452;BME280;37521;52.020;-1.740;2022-10-26T09:47:36;99031.84;;;13.06;100.00
51452;BME280;37521;52.020;-1.740;2022-10-26T09:50:16;99057.47;;;13.19;100.00
51452;BME280;37521;52.020;-1.740;2022-10-26T09:52:46;99042.00;;;13.25;100.00
51452;BME280;37521;52.020;-1.740;2022-10-26T09:55:15;99041.44;;;13.33;100.00
51452;BME280;37521;52.020;-1.740;2022-10-26T09:57:45;99051.50;;;13.41;100.00
51452;BME280;37521;52.020;-1.740;2022-10-26T10:00:16;99058.88;;;13.48;100.00
51452;BME280;37521;52.020;-1.740;2022-10-26T10:02:46;99066.94;;;13.47;100.00
51452;BME280;37521;52.020;-1.740;2022-10-26T10:05:27;99061.81;;;13.56;100.00
51452;BME280;37521;52.020;-1.740;2022-10-26T10:08:19;99058.38;;;13.67;100.00
51452;BME280;37521;52.020;-1.740;2022-10-26T10:10:55;99074.44;;;13.77;100.00
51452;BME280;37521;52.020;-1.740;2022-10-26T10:13:25;99067.00;;;13.82;100.00
51452;BME280;37521;52.020;-1.740;2022-10-26T10:16:00;99067.63;;;13.85;100.00
51452;BME280;37521;52.020;-1.740;2022-10-26T10:18:29;99080.06;;;13.96;100.00
51452;BME280;37521;52.020;-1.740;2022-10-26T10:20:58;99088.88;;;13.97;100.00
51452;BME280;37521;52.020;-1.740;2022-10-26T10:23:30;99096.19;;;13.82;100.00
51452;BME280;37521;52.020;-1.740;2022-10-26T10:26:02;99094.66;;;13.67;100.00
51452;BME280;37521;52.020;-1.740;2022-10-26T10:28:31;99105.31;;;13.54;100.00
51452;BME280;37521;52.020;-1.740;2022-10-26T10:31:01;99111.25;;;13.57;100.00
51452;BME280;37521;52.020;-1.740;2022-10-26T10:33:36;99113.50;;;13.75;100.00
51452;BME280;37521;52.020;-1.740;2022-10-26T10:36:08;99113.06;;;13.81;100.00
51452;BME280;37521;52.020;-1.740;2022-10-26T10:38:40;99129.31;;;14.00;100.00
51452;BME280;37521;52.020;-1.740;2022-10-26T10:41:17;99136.00;;;14.17;100.00
51452;BME280;37521;52.020;-1.740;2022-10-26T10:43:48;99139.50;;;14.17;100.00
51452;BME280;37521;52.020;-1.740;2022-10-26T10:46:20;99137.69;;;14.07;100.00
51452;BME280;37521;52.020;-1.740;2022-10-26T10:48:52;99141.13;;;13.96;100.00
51452;BME280;37521;52.020;-1.740;2022-10-26T10:51:23;99145.94;;;13.91;100.00
51452;BME280;37521;52.020;-1.740;2022-10-26T10:53:54;99154.63;;;13.93;100.00
51452;BME280;37521;52.020;-1.740;2022-10-26T10:56:32;99153.94;;;14.37;100.00
51452;BME280;37521;52.020;-1.740;2022-10-26T10:59:18;99150.59;;;14.82;100.00
51452;BME280;37521;52.020;-1.740;2022-10-26T11:01:52;99167.53;;;15.14;100.00
51452;BME280;37521;52.020;-1.740;2022-10-26T11:04:39;99177.44;;;15.35;100.00
51452;BME280;37521;52.020;-1.740;2022-10-26T11:07:14;99173.81;;;15.36;100.00
51452;BME280;37521;52.020;-1.740;2022-10-26T11:09:46;99179.38;;;15.33;100.00
51452;BME280;37521;52.020;-1.740;2022-10-26T11:12:17;99176.38;;;15.26;100.00
51452;BME280;37521;52.020;-1.740;2022-10-26T11:14:53;99193.88;;;15.06;100.00
51452;BME280;37521;52.020;-1.740;2022-10-26T11:17:26;99206.75;;;14.77;100.00
51452;BME280;37521;52.020;-1.740;2022-10-26T11:19:58;99197.41;;;14.60;100.00
51452;BME280;37521;52.020;-1.740;2022-10-26T11:22:33;99215.28;;;14.58;100.00
51452;BME280;37521;52.020;-1.740;2022-10-26T11:25:05;99209.06;;;14.47;100.00
51452;BME280;37521;52.020;-1.740;2022-10-26T11:27:42;99196.44;;;14.37;100.00
51452;BME280;37521;52.020;-1.740;2022-10-26T11:30:17;99204.66;;;14.58;100.00
51452;BME280;37521;52.020;-1.740;2022-10-26T11:32:48;99207.41;;;14.92;100.00
51452;BME280;37521;52.020;-1.740;2022-10-26T11:35:22;99213.66;;;14.91;100.00
51452;BME280;37521;52.020;-1.740;2022-10-26T11:37:56;99216.25;;;14.68;100.00
51452;BME280;37521;52.020;-1.740;2022-10-26T11:40:35;99218.41;;;14.63;100.00
51452;BME280;37521;52.020;-1.740;2022-10-26T11:43:13;99216.72;;;14.62;100.00
51452;BME280;37521;52.020;-1.740;2022-10-26T11:45:44;99221.69;;;14.43;100.00
51452;BME280;37521;52.020;-1.740;2022-10-26T11:48:18;99223.91;;;14.73;100.00
51452;BME280;37521;52.020;-1.740;2022-10-26T11:50:50;99215.75;;;15.21;100.00
51452;BME280;37521;52.020;-1.740;2022-10-26T11:53:23;99230.16;;;15.18;100.00
51452;BME280;37521;52.020;-1.740;2022-10-26T11:55:54;99227.97;;;15.12;100.00
51452;BME280;37521;52.020;-1.740;2022-10-26T11:58:25;99236.84;;;14.89;100.00
51452;BME280;37521;52.020;-1.740;2022-10-26T12:00:59;99235.91;;;14.55;100.00
51452;BME280;37521;52.020;-1.740;2022-10-26T12:03:31;99226.97;;;14.32;100.00
51452;BME280;37521;52.020;-1.740;2022-10-26T12:06:01;99227.88;;;14.20;100.00
51452;BME280;37521;52.020;-1.740;2022-10-26T12:08:31;99245.94;;;14.14;100.00
51452;BME280;37521;52.020;-1.740;2022-10-26T12:11:06;99241.81;;;14.10;100.00
51452;BME280;37521;52.020;-1.740;2022-10-26T12:13:40;99247.59;;;14.04;100.00
51452;BME280;37521;52.020;-1.740;2022-10-26T12:16:16;99256.81;;;14.11;100.00
51452;BME280;37521;52.020;-1.740;2022-10-26T12:18:50;99251.53;;;14.23;100.00
51452;BME280;37521;52.020;-1.740;2022-10-26T12:21:25;99257.63;;;14.36;100.00
51452;BME280;37521;52.020;-1.740;2022-10-26T12:23:56;99256.41;;;14.29;100.00
51452;BME280;37521;52.020;-1.740;2022-10-26T12:26:49;99254.41;;;14.43;100.00
51452;BME280;37521;52.020;-1.740;2022-10-26T12:29:31;99256.63;;;14.74;100.00
51452;BME280;37521;52.020;-1.740;2022-10-26T12:32:04;99262.72;;;14.87;100.00
51452;BME280;37521;52.020;-1.740;2022-10-26T12:35:00;99271.16;;;14.81;100.00
51452;BME280;37521;52.020;-1.740;2022-10-26T12:37:32;99268.03;;;14.87;100.00
51452;BME280;37521;52.020;-1.740;2022-10-26T12:43:34;99273.38;;;14.39;100.00
51452;BME280;37521;52.020;-1.740;2022-10-26T12:46:36;99272.56;;;14.26;100.00
51452;BME280;37521;52.020;-1.740;2022-10-26T12:52:24;99276.78;;;14.28;100.00
51452;BME280;37521;52.020;-1.740;2022-10-26T12:55:14;99275.56;;;14.45;100.00
51452;BME280;37521;52.020;-1.740;2022-10-26T12:57:51;99287.50;;;14.39;100.00
51452;BME280;37521;52.020;-1.740;2022-10-26T13:00:26;99295.06;;;14.33;100.00
51452;BME280;37521;52.020;-1.740;2022-10-26T13:03:07;99296.06;;;14.43;100.00
51452;BME280;37521;52.020;-1.740;2022-10-26T13:05:59;99287.56;;;14.75;100.00
51452;BME280;37521;52.020;-1.740;2022-10-26T13:08:38;99286.31;;;15.03;100.00
51452;BME280;37521;52.020;-1.740;2022-10-26T13:11:14;99286.47;;;15.23;100.00
51452;BME280;37521;52.020;-1.740;2022-10-26T13:13:50;99297.38;;;15.32;100.00
51452;BME280;37521;52.020;-1.740;2022-10-26T13:16:23;99290.84;;;15.36;100.00
51452;BME280;37521;52.020;-1.740;2022-10-26T13:18:53;99295.88;;;15.16;100.00